Euskara    
Meteorología y climatología de Navarra
Datos de la estación - Meteo Navarra

Estación de Eltzaburu GN

Altitud 588 m.


Datos desde el 18/10/2020 hasta el 19/10/2020 en horario solar
Los datos son PROVISIONALES

Anterior Página 1 de 1 Siguiente Descargar: Formato para Excel 2000 o superior   Formato csv   Formato para OpenOffice Calc
Fecha Temperatura Humedad relativa Radiación global Insolación Precipitación Vel. viento 10 m Vel. viento 10 m Dir. viento 10 m
°C % W/m² s l/m² m/s km/h °
18/10/2020 0:00 2.7 98 0.0 0 0.0 0.9 3.2 322
18/10/2020 0:10 2.5 98 0.0 0 0.0 0.8 3.0 313
18/10/2020 0:20 2.9 99 0.0 0 0.0 0.2 0.9 317
18/10/2020 0:30 3.1 99 0.0 0 0.0 0.5 1.9 186
18/10/2020 0:40 2.3 98 0.0 0 0.0 0.2 0.7 42
18/10/2020 0:50 2.6 99 0.0 0 0.0 0.1 0.5 245
18/10/2020 1:00 2.0 98 0.0 0 0.0 0.3 1.1 139
18/10/2020 1:10 2.0 99 0.0 0 0.0 0.1 0.5 136
18/10/2020 1:20 1.7 98 0.0 0 0.0 0.1 0.4 67
18/10/2020 1:30 1.6 99 0.0 0 0.0 0.0 0.0 118
18/10/2020 1:40 1.3 98 0.0 0 0.0 0.4 1.4 137
18/10/2020 1:50 0.8 98 0.0 0 0.0 0.0 0.1 330
18/10/2020 2:00 0.7 99 0.0 0 0.0 0.3 0.9 351
18/10/2020 2:10 0.7 99 0.0 0 0.0 0.3 1.0 8
18/10/2020 2:20 0.7 99 0.0 0 0.0 0.2 0.6 323
18/10/2020 2:30 0.5 99 0.0 0 0.0 0.6 2.1 342
18/10/2020 2:40 0.4 99 0.0 0 0.0 0.6 2.3 339
18/10/2020 2:50 0.4 99 0.0 0 0.0 0.1 0.5 310
18/10/2020 3:00 0.5 99 0.0 0 0.0 0.1 0.4 167
18/10/2020 3:10 0.4 99 0.0 0 0.0 0.5 1.7 119
18/10/2020 3:20 0.4 99 0.0 0 0.0 0.4 1.3 339
18/10/2020 3:30 0.4 99 0.0 0 0.0 0.3 1.0 5
18/10/2020 3:40 0.4 99 0.0 0 0.0 0.3 1.1 139
18/10/2020 3:50 0.2 99 0.0 0 0.0 0.0 0.1 131
18/10/2020 4:00 -0.0 99 0.0 0 0.0 0.0 0.1 253
18/10/2020 4:10 -0.0 99 0.0 0 0.0 0.2 0.6 44
18/10/2020 4:20 0.0 99 0.0 0 0.0 0.0 0.0 0
18/10/2020 4:30 -0.1 99 0.0 0 0.0 0.1 0.5 22
18/10/2020 4:40 -0.1 99 0.0 0 0.0 0.1 0.3 35
18/10/2020 4:50 -0.1 99 0.0 0 0.0 0.2 0.5 127
18/10/2020 5:00 -0.2 99 0.0 0 0.0 0.4 1.4 158
18/10/2020 5:10 -0.5 99 0.0 0 0.0 0.0 0.0 170
18/10/2020 5:20 -0.5 99 0.0 0 0.0 0.0 0.0 0
18/10/2020 5:30 -0.6 99 0.0 0 0.0 0.3 1.1 113
18/10/2020 5:40 -0.5 99 0.0 0 0.0 0.1 0.5 205
18/10/2020 5:50 -0.8 99 0.0 0 0.0 0.1 0.5 345
18/10/2020 6:00 -0.9 99 0.0 0 0.0 0.2 0.9 340
18/10/2020 6:10 -0.8 99 0.0 0 0.0 0.6 2.1 338
18/10/2020 6:20 -0.5 99 0.0 0 0.0 0.3 1.0 329
18/10/2020 6:30 -0.3 99 0.0 0 0.0 0.1 0.3 178
18/10/2020 6:40 -0.4 99 9.2 0 0.0 0.1 0.4 173
18/10/2020 6:50 -0.5 99 28.7 230 0.0 0.0 0.0 0
18/10/2020 7:00 -0.4 99 39.0 478 0.0 0.0 0.0 0
18/10/2020 7:10 -0.1 99 45.2 0 0.0 0.3 1.2 159
18/10/2020 7:20 0.0 99 49.1 0 0.0 0.0 0.1 206
18/10/2020 7:30 -0.0 99 66.9 0 0.0 0.0 0.0 0
18/10/2020 7:40 0.2 99 86.5 0 0.0 0.0 0.0 0
18/10/2020 7:50 0.5 99 90.0 0 0.0 0.1 0.3 200
18/10/2020 8:00 1.0 99 108.0 0 0.0 0.2 0.7 203
18/10/2020 8:10 1.6 99 156.6 406 0.0 0.5 1.7 194
18/10/2020 8:20 2.5 99 161.3 264 0.0 0.5 1.7 178
18/10/2020 8:30 2.6 99 148.7 6 0.0 0.8 3.0 196
18/10/2020 8:40 2.9 99 179.4 170 0.0 0.3 1.0 177
18/10/2020 8:50 3.4 99 282.3 600 0.0 0.4 1.4 202
18/10/2020 9:00 3.8 99 259.5 452 0.0 0.6 2.2 220
18/10/2020 9:10 4.2 99 305.4 576 0.0 0.3 1.1 274
18/10/2020 9:20 5.0 99 346.1 556 0.0 0.5 1.7 305
18/10/2020 9:30 5.6 99 328.9 370 0.0 0.7 2.6 194
18/10/2020 9:40 6.3 99 324.4 492 0.0 0.9 3.3 183
18/10/2020 9:50 7.0 99 428.5 600 0.0 1.1 3.8 156
18/10/2020 10:00 7.7 98 403.7 576 0.1 1.0 3.6 162
18/10/2020 10:10 7.5 94 245.0 180 0.0 1.5 5.3 176
18/10/2020 10:20 8.0 91 456.8 600 0.0 1.2 4.2 185
18/10/2020 10:30 8.9 86 557.7 600 0.0 0.9 3.3 205
18/10/2020 10:40 10.0 79 585.1 600 0.0 0.7 2.6 221
18/10/2020 10:50 11.0 75 577.2 600 0.0 1.2 4.4 184
18/10/2020 11:00 11.8 70 617.0 600 0.0 1.3 4.8 174
18/10/2020 11:10 13.1 62 623.6 600 0.0 0.7 2.4 152
18/10/2020 11:20 14.0 60 627.5 600 0.0 1.0 3.6 158
18/10/2020 11:30 14.3 59 633.4 600 0.0 1.2 4.3 163
18/10/2020 11:40 14.8 55 638.9 600 0.0 1.2 4.3 154
18/10/2020 11:50 15.2 59 642.5 600 0.0 1.1 4.1 162
18/10/2020 12:00 15.8 56 643.6 600 0.0 1.4 5.1 171
18/10/2020 12:10 15.7 58 645.1 600 0.0 1.2 4.3 171
18/10/2020 12:20 16.3 57 640.0 600 0.0 1.1 4.0 173
18/10/2020 12:30 16.9 56 638.4 600 0.0 0.9 3.2 147
18/10/2020 12:40 17.4 53 626.2 600 0.0 1.0 3.5 69
18/10/2020 12:50 17.6 51 617.6 600 0.0 0.7 2.6 71
18/10/2020 13:00 17.7 54 593.4 600 0.0 1.9 6.8 182
18/10/2020 13:10 17.4 52 594.8 600 0.0 1.3 4.6 172
18/10/2020 13:20 17.9 51 560.1 600 0.0 1.1 4.1 181
18/10/2020 13:30 17.9 50 566.6 600 0.0 1.6 5.7 182
18/10/2020 13:40 18.1 50 520.6 600 0.0 1.1 4.1 168
18/10/2020 13:50 18.2 49 471.0 600 0.0 1.3 4.6 178
18/10/2020 14:00 18.2 51 472.2 600 0.0 1.6 5.9 175
18/10/2020 14:10 18.5 48 471.6 600 0.0 1.3 4.8 166
18/10/2020 14:20 18.5 48 451.9 600 0.0 1.4 4.9 169
18/10/2020 14:30 18.9 47 418.5 600 0.0 0.8 3.0 157
18/10/2020 14:40 19.1 46 382.6 600 0.0 0.8 3.0 150
18/10/2020 14:50 19.3 47 355.5 600 0.0 1.1 3.8 172
18/10/2020 15:00 18.5 50 218.6 440 0.0 1.2 4.5 173
18/10/2020 15:10 18.0 50 205.5 378 0.0 1.1 3.8 163
18/10/2020 15:20 18.2 48 247.0 558 0.0 0.8 2.9 158
18/10/2020 15:30 18.4 48 260.2 600 0.0 0.7 2.3 164
18/10/2020 15:40 18.6 49 242.7 600 0.0 0.8 2.8 164
18/10/2020 15:50 18.3 50 225.7 600 0.0 0.8 2.9 180
18/10/2020 16:00 18.2 49 191.6 600 0.0 0.5 1.9 143
18/10/2020 16:10 18.7 46 174.9 600 0.0 0.3 1.2 109
18/10/2020 16:20 19.5 45 144.8 600 0.0 0.2 0.8 119
18/10/2020 16:30 18.7 50 113.6 600 0.0 0.4 1.3 149
18/10/2020 16:40 18.2 53 81.1 574 0.0 0.1 0.2 104
18/10/2020 16:50 17.5 56 55.0 592 0.0 0.0 0.1 110
18/10/2020 17:00 17.1 60 29.8 322 0.0 0.1 0.3 239
18/10/2020 17:10 14.9 73 0.2 0 0.0 0.0 0.1 229
18/10/2020 17:20 13.0 80 0.0 0 0.0 0.2 0.6 358
18/10/2020 17:30 11.8 81 0.0 0 0.0 0.1 0.3 334
18/10/2020 17:40 11.1 84 0.0 0 0.0 0.4 1.4 275
18/10/2020 17:50 10.3 86 0.0 0 0.0 0.8 3.0 334
18/10/2020 18:00 10.4 83 0.0 0 0.0 0.3 0.9 337
18/10/2020 18:10 10.1 84 0.0 0 0.0 0.4 1.4 171
18/10/2020 18:20 9.6 86 0.0 0 0.0 0.2 0.7 129
18/10/2020 18:30 9.3 89 0.0 0 0.0 0.0 0.0 57
18/10/2020 18:40 9.0 90 0.0 0 0.0 0.0 0.0 0
18/10/2020 18:50 8.7 91 0.0 0 0.0 0.0 0.0 0
18/10/2020 19:00 8.5 92 0.0 0 0.0 0.0 0.0 0
18/10/2020 19:10 8.0 93 0.0 0 0.0 0.0 0.0 0
18/10/2020 19:20 7.7 95 0.0 0 0.0 0.1 0.3 93
18/10/2020 19:30 7.7 95 0.0 0 0.0 0.0 0.0 297
18/10/2020 19:40 7.8 96 0.0 0 0.0 0.0 0.0 0
18/10/2020 19:50 7.3 95 0.0 0 0.0 0.0 0.0 0
18/10/2020 20:00 7.1 96 0.0 0 0.0 0.0 0.0 0
18/10/2020 20:10 7.0 96 0.0 0 0.0 0.0 0.0 0
18/10/2020 20:20 6.8 97 0.0 0 0.0 0.0 0.0 0
18/10/2020 20:30 7.0 97 0.0 0 0.0 0.0 0.0 0
18/10/2020 20:40 7.0 97 0.0 0 0.0 0.0 0.0 217
18/10/2020 20:50 7.0 98 0.0 0 0.0 0.0 0.0 24
18/10/2020 21:00 6.6 97 0.0 0 0.0 0.0 0.1 37
18/10/2020 21:10 6.6 97 0.0 0 0.0 0.3 1.2 170
18/10/2020 21:20 5.8 97 0.0 0 0.0 0.1 0.4 173
18/10/2020 21:30 6.0 98 0.0 0 0.0 0.2 0.6 169
18/10/2020 21:40 6.1 98 0.0 0 0.0 0.0 0.0 133
18/10/2020 21:50 6.0 98 0.0 0 0.0 0.0 0.1 91
18/10/2020 22:00 6.0 98 0.0 0 0.0 0.3 1.2 2
18/10/2020 22:10 6.3 98 0.0 0 0.0 0.4 1.3 1
18/10/2020 22:20 6.1 98 0.0 0 0.0 0.5 1.8 133
18/10/2020 22:30 5.1 98 0.0 0 0.0 0.0 0.0 0
18/10/2020 22:40 5.1 98 0.0 0 0.0 0.4 1.3 0
18/10/2020 22:50 5.8 99 0.0 0 0.0 0.0 0.0 0
18/10/2020 23:00 5.6 98 0.0 0 0.0 0.1 0.2 201
18/10/2020 23:10 5.2 98 0.0 0 0.0 0.1 0.5 132
18/10/2020 23:20 5.1 98 0.0 0 0.0 0.1 0.4 22
18/10/2020 23:30 5.3 99 0.0 0 0.0 0.2 0.5 132
18/10/2020 23:40 5.3 99 0.0 0 0.0 0.1 0.2 38
18/10/2020 23:50 5.2 99 0.0 0 0.0 0.4 1.5 103
Anterior Página 1 de 1 Siguiente

NOTA: Tipo de datos según el color:
   - Valores diarios o 10 minutos correctos
   - Valores diarios calculados a partir de un número de datos 10 minutos menor que 144 y mayor que 120, o de un número de datos semihorarios menor que 48 y mayor que 40 (caso de las estaciones de INTIA Y Ministerio)
   - Valores diez minutos estimados


Contacto        Enlaces        Aviso legal